Stations météo

réclame
Mon MeteoGroup
Malmö, Suède (2635): Température de l'air & dewpoint: 16.10.2017 17:00:00 - 22.10.2017 17:00:00 (CEST)Malmö, Suède (2635): Vitesse du vent & gusts: 16.10.2017 17:00:00 - 22.10.2017 17:00:00 (CEST)Malmö, Suède (2635): Direction du vent: 16.10.2017 17:00:00 - 22.10.2017 17:00:00 (CEST)Malmö, Suède (2635): visibility: 16.10.2017 17:00:00 - 22.10.2017 17:00:00 (CEST)Malmö, Suède (2635): Quantités de précipitations: 16.10.2017 17:00:00 - 22.10.2017 17:00:00 (CEST)
Date & Time tt [°C] td [°C] ff [km/h] ff [knt] fx [km/h] fx [knt] dd vv [km] rr [mm]
22.10.2017 17:00:00 - - - - - - - - -
22.10.2017 16:00:00 12,7 10,1 6 3 16 8 WSW 15 0,0
22.10.2017 15:00:00 12,5 11,5 6 4 11 6 S 10 0,0
22.10.2017 14:00:00 12,1 11,3 4 2 8 5 SE 11 0,0
22.10.2017 13:00:00 11,9 11,5 3 2 8 4 ESE 10 0,0
22.10.2017 12:00:00 11,5 11,2 4 2 9 5 SE 9 0,2
22.10.2017 11:00:00 11,4 11,0 4 2 17 9 SE 6 0,8
22.10.2017 10:00:00 11,0 10,5 9 5 24 13 ESE 10 0,1
22.10.2017 09:00:00 10,6 9,7 14 7 25 13 ESE 17 0,3
22.10.2017 08:00:00 10,6 10,0 14 8 25 13 SE 8 1,0
22.10.2017 07:00:00 10,7 9,8 14 8 23 13 SE 4,5 0,3
22.10.2017 06:00:00 10,9 9,5 14 7 25 14 SE 10 0,9
22.10.2017 05:00:00 11,1 10,1 11 6 26 14 ESE 8 1,1
22.10.2017 04:00:00 11,5 10,6 14 8 28 15 ESE 9 0,1
22.10.2017 03:00:00 11,5 10,6 16 9 28 15 ESE 9 0,0
22.10.2017 02:00:00 11,3 10,5 14 7 22 12 SE 10 0,0
22.10.2017 01:00:00 11,1 10,4 14 8 26 14 ESE 9 0,0
22.10.2017 00:00:00 11,0 10,1 13 7 26 14 ESE 10 0,0
21.10.2017 23:00:00 10,9 10,0 11 6 19 11 ESE 8 0,0
21.10.2017 22:00:00 11,1 9,8 11 6 19 11 ESE 14 0,0
21.10.2017 21:00:00 11,2 10,2 10 5 14 8 SE 13 0,0
21.10.2017 20:00:00 11,4 11,0 8 5 14 8 ESE 4,2 0,0
21.10.2017 19:00:00 11,6 11,3 6 3 18 10 ESE 1,9 0,2
21.10.2017 18:00:00 11,8 11,6 10 5 18 10 E 3,3 0,9
21.10.2017 17:00:00 12,0 11,8 7 4 16 9 E 1,0 0,1
21.10.2017 16:00:00 12,2 11,9 10 5 15 8 ESE 2,8 0,0
21.10.2017 15:00:00 12,2 11,8 5 3 12 6 E 3,7 0,1
21.10.2017 14:00:00 12,0 11,5 6 3 18 10 E 4,6 0,1
21.10.2017 13:00:00 12,0 11,4 6 4 18 10 E 10 0,0
21.10.2017 12:00:00 11,8 11,2 4 2 20 11 E 28 0,0
21.10.2017 11:00:00 11,5 11,1 9 5 20 11 ENE 13 0,0
21.10.2017 10:00:00 11,5 11,1 8 5 16 9 ENE 5 0,0
21.10.2017 09:00:00 11,5 11,1 6 4 15 8 ENE 5 0,0
21.10.2017 08:00:00 11,5 11,0 5 3 15 8 ENE 3,3 0,0
21.10.2017 07:00:00 11,6 11,1 8 4 18 10 E 8 0,2
21.10.2017 06:00:00 11,6 11,1 8 4 18 10 E 7 0,5
21.10.2017 05:00:00 11,7 11,2 5 3 16 8 E 6 0,0
21.10.2017 04:00:00 11,8 11,3 5 3 17 9 E 2,6 0,7
21.10.2017 03:00:00 11,8 11,3 6 3 25 13 E 3,4 0,0
21.10.2017 02:00:00 11,8 11,3 10 5 25 13 E 2,7 0,0
21.10.2017 01:00:00 11,7 11,2 13 7 29 15 E 3,1 0,0
21.10.2017 00:00:00 11,6 11,1 14 8 29 15 E 3,0 0,3
20.10.2017 23:00:00 11,5 10,9 17 9 26 14 ESE 3,0 0,7
20.10.2017 22:00:00 11,3 10,9 11 6 23 13 E 3,6 0,7
20.10.2017 21:00:00 11,2 10,8 11 6 23 12 E 2,4 1,2
20.10.2017 20:00:00 11,5 11,0 10 5 26 14 E 2,9 0,7
20.10.2017 19:00:00 11,6 11,1 13 7 26 14 E 3,0 0,6
20.10.2017 18:00:00 11,7 11,0 13 7 30 16 E 3,1 0,1
20.10.2017 17:00:00 11,9 11,1 15 8 36 20 E 3,2 0,0
20.10.2017 16:00:00 11,9 11,0 18 10 37 20 ESE 3,3 0,0
20.10.2017 15:00:00 11,8 11,2 22 12 38 21 ESE 2,6 0,0
20.10.2017 14:00:00 11,9 11,3 18 10 39 21 ESE 2,1 0,0
20.10.2017 13:00:00 12,0 11,3 23 13 39 21 ESE 2,9 0,0
20.10.2017 12:00:00 12,0 11,1 24 13 38 21 ESE 2,9 0,0
20.10.2017 11:00:00 11,7 11,4 22 12 37 20 E 2,0 0,0
20.10.2017 10:00:00 11,5 11,1 24 13 35 19 ESE 2,0 0,0
20.10.2017 09:00:00 11,5 11,0 18 10 31 17 E 2,5 0,0
20.10.2017 08:00:00 11,4 10,8 16 9 28 15 ESE 3,0 0,0
20.10.2017 07:00:00 11,4 10,5 17 9 34 18 ESE 7 0,0
20.10.2017 06:00:00 11,4 10,2 17 9 34 18 ESE 9 0,0
20.10.2017 05:00:00 11,3 10,2 21 12 34 18 ESE 10 0,0
20.10.2017 04:00:00 11,4 10,1 21 11 34 18 ESE 14 0,0
20.10.2017 03:00:00 11,0 10,0 18 10 30 16 E 16 0,0
20.10.2017 02:00:00 11,2 10,1 17 9 32 17 E 17 0,0
20.10.2017 01:00:00 11,4 10,1 18 10 32 17 ESE 24 0,0
20.10.2017 00:00:00 11,2 10,0 17 9 30 16 ESE 23 0,0
19.10.2017 23:00:00 10,7 9,4 18 10 32 17 E 38 0,0
19.10.2017 22:00:00 10,7 9,2 20 11 32 18 E 41 0,0
19.10.2017 21:00:00 11,0 9,7 16 9 34 19 E 27 0,0
19.10.2017 20:00:00 11,5 10,2 22 12 34 19 E 34 0,0
19.10.2017 19:00:00 11,7 10,5 17 9 29 16 E 21 0,0
19.10.2017 18:00:00 11,8 10,5 16 8 26 14 E 25 0,0
19.10.2017 17:00:00 12,1 10,7 11 6 28 15 E 27 0,0
19.10.2017 16:00:00 12,4 10,9 13 7 28 15 E 23 0,0
19.10.2017 15:00:00 12,5 11,1 16 9 27 15 E 26 0,0
19.10.2017 14:00:00 12,0 11,2 16 9 27 15 E 5 0,0
19.10.2017 13:00:00 12,0 11,5 11 6 22 12 E 13 0,0
19.10.2017 12:00:00 11,9 11,3 13 7 22 12 E 13 0,0
19.10.2017 11:00:00 11,5 11,1 11 6 19 10 E 13 0,0
19.10.2017 10:00:00 11,0 10,7 11 6 18 10 E 4,2 0,0
19.10.2017 09:00:00 10,5 10,3 6 3 17 9 E 5 0,3
19.10.2017 08:00:00 10,2 10,0 6 4 20 11 E 4,7 0,1
19.10.2017 07:00:00 10,2 9,9 8 5 20 11 E 3,4 0,0
19.10.2017 06:00:00 11,0 10,7 6 3 18 10 E 4,1 0,0
19.10.2017 05:00:00 11,4 11,2 8 4 12 6 E 9 0,0
19.10.2017 04:00:00 11,2 11,0 5 3 8 5 ENE 4,9 0,0
19.10.2017 03:00:00 11,0 10,8 3 2 6 3 ENE 7 0,0
19.10.2017 02:00:00 11,1 10,8 2 1 7 4 E 3,6 0,0
19.10.2017 01:00:00 11,3 11,1 4 2 7 4 E 5 0,3
19.10.2017 00:00:00 11,5 11,2 4 2 5 3 E 3,0 1,6
18.10.2017 23:00:00 11,6 11,3 0 0 4 2 N 3,1 1,5
18.10.2017 22:00:00 11,5 11,2 0 0 3 1 N 3,9 2,0
18.10.2017 21:00:00 11,7 11,2 0 0 3 1 N 3,3 1,5
18.10.2017 20:00:00 11,7 11,2 0 0 3 2 N 3,1 1,0
18.10.2017 19:00:00 11,7 11,1 0 0 9 5 N 7 0,1
18.10.2017 18:00:00 12,4 11,3 3 2 13 7 WSW 11 0,3
18.10.2017 17:00:00 13,0 11,1 0 0 13 7 N 19 0,0
18.10.2017 16:00:00 13,2 10,8 5 3 15 8 W 18 0,0
18.10.2017 15:00:00 13,2 11,0 7 4 18 10 WSW 17 0,1
18.10.2017 14:00:00 13,5 10,6 9 5 21 11 WSW 17 0,0
18.10.2017 13:00:00 13,1 10,4 11 6 23 13 W 15 0,0
18.10.2017 12:00:00 13,4 10,2 13 7 25 14 W 16 0,0
18.10.2017 11:00:00 13,4 10,1 13 7 29 16 W 16 0,0
18.10.2017 10:00:00 13,5 10,0 12 7 29 16 W 19 0,0
18.10.2017 09:00:00 13,1 9,4 14 8 34 18 W 18 0,0
18.10.2017 08:00:00 12,7 9,3 15 8 36 20 WSW 18 0,0
18.10.2017 07:00:00 12,5 9,4 19 10 36 20 WSW 16 0,0
18.10.2017 06:00:00 12,4 10,0 16 9 33 18 WSW 13 0,0
18.10.2017 05:00:00 12,0 10,2 13 7 32 18 WSW 11 0,0
18.10.2017 04:00:00 11,8 10,3 14 7 33 18 WSW 10 0,0
18.10.2017 03:00:00 11,8 10,4 14 7 33 18 WSW 10 0,0
18.10.2017 02:00:00 11,6 10,2 11 6 30 16 WSW 10 0,0
18.10.2017 01:00:00 11,7 10,2 11 6 30 16 WSW 10 0,0
18.10.2017 00:00:00 11,8 10,0 9 5 25 14 WSW 11 0,0
17.10.2017 23:00:00 11,9 10,1 9 5 23 13 WSW 11 0,0
17.10.2017 22:00:00 11,8 10,2 10 5 23 13 WSW 10 0,0
17.10.2017 21:00:00 12,0 10,1 10 5 28 15 WSW 10 0,0
17.10.2017 20:00:00 12,1 10,2 10 5 28 15 WSW 10 0,0
17.10.2017 19:00:00 12,7 10,3 11 6 29 15 WSW 10 0,0
17.10.2017 18:00:00 13,5 10,3 14 7 30 16 WSW 11 0,0
17.10.2017 17:00:00 13,9 10,5 15 8 32 17 WSW 10 0,0
17.10.2017 16:00:00 14,1 10,9 14 8 32 17 WSW 10 0,0
17.10.2017 15:00:00 14,4 11,1 13 7 35 19 WSW 10 0,0
17.10.2017 14:00:00 14,9 11,2 16 9 35 19 WSW 10 0,0
17.10.2017 13:00:00 15,4 11,6 13 7 31 17 WSW 12 0,0
17.10.2017 12:00:00 15,2 12,2 14 7 28 15 WSW 13 0,0
17.10.2017 11:00:00 14,9 12,5 8 4 25 14 WSW 12 0,0
17.10.2017 10:00:00 14,8 12,9 8 4 22 12 SW 10 0,0
17.10.2017 09:00:00 14,3 13,0 7 4 20 11 SSW 8 0,0
17.10.2017 08:00:00 14,1 13,1 5 3 19 10 SSW 8 0,0
17.10.2017 07:00:00 13,9 13,1 6 3 20 11 SSW 7 0,0
17.10.2017 06:00:00 13,5 12,9 9 5 22 12 S 3,1 0,0
17.10.2017 05:00:00 13,4 12,8 10 5 22 12 S 2,5 0,0
17.10.2017 04:00:00 13,4 12,7 8 5 21 12 S 3,0 0,0
17.10.2017 03:00:00 12,9 12,2 6 4 17 9 SSE 3,3 0,0
17.10.2017 02:00:00 13,2 12,5 5 3 17 9 SSE 2,7 0,0
17.10.2017 01:00:00 13,2 12,9 4 2 11 6 SSE 3,1 0,0
17.10.2017 00:00:00 12,2 12,0 4 2 10 6 SSE 1,7 0,0
16.10.2017 23:00:00 11,9 11,7 4 2 10 5 S 1,3 0,0
16.10.2017 22:00:00 12,2 11,9 0 0 10 5 N 1,3 0,0
16.10.2017 21:00:00 12,6 12,2 3 2 9 5 WSW 1,8 0,0
16.10.2017 20:00:00 12,0 11,5 2 1 9 5 SSW 2,2 0,0
16.10.2017 19:00:00 12,2 11,0 3 2 13 7 SW 6 0,0
16.10.2017 18:00:00 14,0 11,9 4 2 18 10 SW 9 0,0
16.10.2017 17:00:00 15,3 12,3 8 5 20 11 W 11 0,0

tt = Température de l'air
td = dewpoint
ff = Vitesse du vent
fx = gusts
dd = Direction du vent
vv = visibility
rr = Quantités de précipitations

stations d'obs. à proximité